Terminal Aerodrome Forecast
Issued by NWS

Home | Current Version | Previous Version | Text Only | Print | Product List | Glossary On
Versions: 1 2 3 4 5 6 7 8 9 10 11 12 13 14
000
FTUS45 KBOI 270528 AAA
TAFTWF
TAF AMD
KTWF 270528Z 2705/2806 22008KT P6SM VCTS FEW080CB BKN120
      TEMPO 2706/2707 27015G25KT -TSRA BKN080CB
     FM270700 22010KT P6SM SCT120
     FM271700 26015G25KT P6SM SKC
     FM280300 VRB06KT P6SM SKC=

USA.gov is the U.S. government's official web portal to all federal, state and local government web resources and services.